Time;durP1;ratioP1;P1;durP2;ratioP2;P2;SDS_P1;SDS_P2;PMS_P1;PMS_P2;Temp;Humidity;BMP_temperature;BMP_pressure;BME280_temperature;BME280_humidity;BME280_pressure;Samples;Min_cycle;Max_cycle;Signal;HPM_P1;HPM_P2
2022/07/04 00:02:08;;;;;;;0.20;0.20;;;19.50;1.00;;;;;;5032585;28;20704;-75
2022/07/04 00:04:34;;;;;;;0.30;0.30;;;19.50;1.00;;;;;;5031765;28;20536;-76
2022/07/04 00:06:59;;;;;;;0.40;0.40;;;19.50;1.00;;;;;;5032006;28;20172;-75
2022/07/04 00:09:25;;;;;;;0.30;0.30;;;19.30;1.00;;;;;;5031267;28;20267;-76
2022/07/04 00:11:50;;;;;;;0.30;0.30;;;19.30;1.00;;;;;;5031529;28;20782;-76
2022/07/04 00:14:16;;;;;;;0.30;0.30;;;19.30;1.00;;;;;;5031186;28;20179;-76
2022/07/04 00:16:42;;;;;;;0.30;0.30;;;19.20;1.00;;;;;;5032191;28;20168;-76
2022/07/04 00:19:07;;;;;;;0.30;0.30;;;19.10;1.00;;;;;;5031376;28;20211;-76
2022/07/04 00:21:33;;;;;;;0.40;0.40;;;19.10;1.00;;;;;;5030774;28;20179;-76
2022/07/04 00:23:59;;;;;;;0.23;0.23;;;19.10;1.00;;;;;;5033022;28;20251;-76
2022/07/04 00:26:24;;;;;;;0.30;0.30;;;19.10;1.00;;;;;;5032342;28;20183;-77
2022/07/04 00:28:50;;;;;;;0.30;0.30;;;19.10;1.00;;;;;;5031540;28;20203;-76
2022/07/04 00:31:15;;;;;;;0.20;0.20;;;19.10;1.00;;;;;;5031416;28;20184;-76
2022/07/04 00:33:41;;;;;;;0.30;0.30;;;19.20;1.00;;;;;;5031669;28;20179;-76
2022/07/04 00:36:07;;;;;;;0.40;0.40;;;19.20;1.00;;;;;;5031770;28;20585;-76
2022/07/04 00:38:32;;;;;;;0.20;0.20;;;19.20;1.00;;;;;;5031502;28;20291;-76
2022/07/04 00:40:58;;;;;;;0.30;0.30;;;19.30;1.00;;;;;;5031210;28;20207;-76
2022/07/04 00:43:25;;;;;;;0.30;0.30;;;19.30;1.00;;;;;;5031752;28;20198;-76
2022/07/04 00:45:51;;;;;;;0.30;0.30;;;19.30;1.00;;;;;;5031181;28;20254;-76
2022/07/04 00:48:18;;;;;;;0.30;0.30;;;19.30;1.00;;;;;;5031543;28;20172;-76
2022/07/04 00:50:45;;;;;;;0.30;0.30;;;19.30;1.00;;;;;;5030979;28;20184;-76
2022/07/04 00:53:12;;;;;;;0.30;0.30;;;19.40;99.90;;;;;;5031270;28;20700;-76
2022/07/04 00:55:38;;;;;;;0.20;0.20;;;19.40;99.90;;;;;;5031505;28;20748;-76
2022/07/04 00:58:04;;;;;;;0.30;0.30;;;19.50;24.00;;;;;;5031224;28;20176;-76
2022/07/04 01:00:30;;;;;;;0.30;0.30;;;19.50;99.90;;;;;;5030861;28;20361;-76
2022/07/04 01:02:55;;;;;;;0.30;0.30;;;19.50;99.90;;;;;;5031062;28;20212;-76
2022/07/04 01:05:21;;;;;;;0.30;0.30;;;19.50;1.00;;;;;;5031322;28;20601;-76
2022/07/04 01:07:46;;;;;;;0.30;0.30;;;19.50;64.80;;;;;;5031189;28;20637;-76
2022/07/04 01:10:12;;;;;;;0.30;0.30;;;19.50;1.00;;;;;;5030749;28;20186;-76
2022/07/04 01:12:38;;;;;;;0.30;0.30;;;19.50;1.00;;;;;;5031219;28;20196;-76
2022/07/04 01:15:06;;;;;;;0.40;0.40;;;19.50;99.90;;;;;;5031209;28;20180;-76
2022/07/04 01:17:31;;;;;;;0.30;0.30;;;19.50;99.90;;;;;;5030915;28;20164;-77
2022/07/04 01:19:57;;;;;;;0.30;0.30;;;19.50;99.90;;;;;;5030502;28;20624;-77
2022/07/04 01:22:22;;;;;;;0.30;0.30;;;19.50;66.70;;;;;;5031149;28;20299;-77
2022/07/04 01:24:49;;;;;;;0.30;0.30;;;19.40;1.00;;;;;;5031761;28;20254;-76
2022/07/04 01:27:15;;;;;;;0.20;0.20;;;19.40;1.00;;;;;;5034533;28;20633;-76
2022/07/04 01:29:41;;;;;;;0.30;0.30;;;19.40;1.00;;;;;;5034361;28;20211;-76
2022/07/04 01:32:08;;;;;;;0.30;0.30;;;19.40;99.90;;;;;;5034308;28;20299;-76
2022/07/04 01:34:34;;;;;;;0.30;0.30;;;19.40;99.90;;;;;;5034570;28;20640;-76
2022/07/04 01:37:00;;;;;;;0.40;0.40;;;19.40;1.00;;;;;;5034491;28;20266;-76
2022/07/04 01:39:29;;;;;;;0.30;0.30;;;19.50;1.00;;;;;;5033932;28;20243;-76
2022/07/04 01:41:55;;;;;;;0.30;0.30;;;19.50;1.00;;;;;;5034130;28;20225;-76
2022/07/04 01:44:21;;;;;;;0.30;0.30;;;19.50;99.90;;;;;;5034509;28;20172;-76
2022/07/04 01:46:47;;;;;;;0.30;0.30;;;19.60;1.00;;;;;;5034385;28;20176;-77
2022/07/04 01:49:12;;;;;;;0.30;0.30;;;19.60;99.90;;;;;;5033791;28;20188;-76
2022/07/04 01:51:49;;;;;;;0.30;0.30;;;19.60;1.00;;;;;;5034142;28;20187;-76
2022/07/04 01:54:14;;;;;;;0.40;0.40;;;19.60;1.00;;;;;;5034038;28;20171;-76
2022/07/04 01:56:40;;;;;;;0.30;0.30;;;19.60;1.00;;;;;;5034388;28;20186;-76
2022/07/04 01:59:06;;;;;;;0.30;0.30;;;19.60;99.90;;;;;;5033555;28;20215;-75
2022/07/04 02:01:33;;;;;;;0.30;0.30;;;19.60;1.00;;;;;;5033916;28;20203;-76
2022/07/04 02:04:01;;;;;;;0.30;0.30;;;19.60;99.90;;;;;;5034034;28;20589;-76
2022/07/04 02:06:27;;;;;;;0.30;0.30;;;19.60;1.00;;;;;;5033950;28;20271;-77
2022/07/04 02:14:22;;;;;;;0.30;0.30;;;19.60;99.50;;;;;;5034014;28;20211;-76
2022/07/04 02:16:48;;;;;;;0.30;0.30;;;19.50;1.00;;;;;;5033772;28;20211;-76
2022/07/04 02:19:13;;;;;;;0.30;0.30;;;19.50;1.00;;;;;;5033079;28;20314;-76
2022/07/04 02:21:39;;;;;;;0.30;0.30;;;19.50;99.90;;;;;;5033826;28;20192;-76
2022/07/04 02:24:05;;;;;;;0.40;0.40;;;19.50;1.00;;;;;;5033690;28;20197;-76
2022/07/04 02:26:30;;;;;;;0.30;0.30;;;19.50;1.00;;;;;;5033719;28;20178;-76
2022/07/04 02:28:56;;;;;;;0.40;0.40;;;19.50;1.00;;;;;;5033077;28;20176;-76
2022/07/04 02:31:22;;;;;;;0.30;0.30;;;19.50;99.90;;;;;;5033250;28;20183;-76
2022/07/04 02:33:47;;;;;;;0.30;0.30;;;19.40;1.00;;;;;;5033424;28;20195;-76
2022/07/04 02:36:13;;;;;;;0.30;0.30;;;19.40;99.90;;;;;;5032519;28;20172;-76
2022/07/04 02:38:38;;;;;;;0.30;0.30;;;19.40;28.40;;;;;;5033034;28;20311;-76
2022/07/04 02:41:04;;;;;;;0.30;0.30;;;19.40;1.00;;;;;;5032863;28;20175;-76
2022/07/04 02:43:29;;;;;;;0.30;0.30;;;19.40;1.00;;;;;;5033043;28;20200;-76
2022/07/04 02:45:55;;;;;;;0.30;0.30;;;19.30;99.90;;;;;;5033172;28;20176;-76
2022/07/04 02:48:21;;;;;;;0.30;0.30;;;19.30;93.10;;;;;;5033011;28;20202;-76
2022/07/04 02:50:46;;;;;;;0.30;0.30;;;19.30;5.60;;;;;;5032695;28;20218;-76
2022/07/04 02:53:12;;;;;;;0.30;0.30;;;19.30;1.00;;;;;;5032832;28;20203;-76
2022/07/04 02:55:37;;;;;;;0.30;0.30;;;19.20;1.00;;;;;;5033124;28;20202;-76
2022/07/04 02:58:03;;;;;;;0.30;0.30;;;19.10;99.90;;;;;;5033009;28;20660;-76
2022/07/04 03:00:28;;;;;;;0.30;0.30;;;19.10;99.90;;;;;;5032283;28;20222;-76
2022/07/04 03:02:54;;;;;;;0.40;0.40;;;19.00;1.00;;;;;;5032614;28;20329;-76
2022/07/04 03:05:20;;;;;;;0.30;0.30;;;18.90;1.00;;;;;;5032858;28;20194;-76
2022/07/04 03:07:45;;;;;;;0.30;0.30;;;18.80;99.90;;;;;;5032577;28;20183;-76
2022/07/04 03:10:11;;;;;;;0.30;0.30;;;18.80;1.00;;;;;;5032043;28;20266;-76
2022/07/04 03:12:37;;;;;;;0.30;0.30;;;18.80;1.00;;;;;;5032474;28;20322;-76
2022/07/04 03:15:03;;;;;;;0.30;0.30;;;18.70;1.00;;;;;;5032409;28;20276;-75
2022/07/04 03:17:30;;;;;;;0.30;0.30;;;18.70;99.90;;;;;;5032435;28;20172;-76
2022/07/04 03:19:58;;;;;;;0.40;0.40;;;18.70;1.00;;;;;;5032146;28;20218;-76
2022/07/04 03:22:24;;;;;;;0.30;0.30;;;18.60;1.00;;;;;;5032413;28;20191;-75
2022/07/04 03:24:49;;;;;;;0.30;0.30;;;18.50;1.00;;;;;;5032238;28;20253;-76
2022/07/04 03:27:15;;;;;;;0.30;0.30;;;18.50;1.00;;;;;;5032269;28;20255;-77
2022/07/04 03:29:41;;;;;;;0.37;0.37;;;18.50;1.00;;;;;;5031636;28;20187;-75
2022/07/04 03:32:07;;;;;;;0.30;0.30;;;18.40;1.00;;;;;;5032367;28;20203;-75
2022/07/04 03:34:32;;;;;;;0.30;0.30;;;18.40;1.00;;;;;;5032001;28;20187;-75
2022/07/04 03:36:58;;;;;;;0.40;0.40;;;18.40;1.00;;;;;;5032242;28;20179;-75
2022/07/04 03:39:23;;;;;;;0.40;0.40;;;18.40;1.00;;;;;;5031509;28;20556;-76
2022/07/04 03:41:49;;;;;;;0.30;0.30;;;18.30;1.00;;;;;;5032043;28;20278;-76
2022/07/04 03:44:15;;;;;;;0.30;0.30;;;18.30;1.00;;;;;;5031899;28;20621;-75
2022/07/04 03:46:40;;;;;;;0.30;0.30;;;18.20;1.00;;;;;;5031837;28;20229;-75
2022/07/04 03:49:06;;;;;;;0.30;0.30;;;18.20;1.00;;;;;;5028555;28;20176;-75
2022/07/04 03:51:31;;;;;;;0.37;0.37;;;18.20;1.00;;;;;;5031781;28;20226;-76
2022/07/04 03:53:57;;;;;;;0.30;0.30;;;18.20;1.00;;;;;;5032249;28;20171;-76
2022/07/04 03:56:22;;;;;;;0.20;0.20;;;18.20;1.00;;;;;;5031242;28;20176;-75
2022/07/04 03:58:48;;;;;;;0.40;0.40;;;18.20;1.00;;;;;;5031616;28;20215;-75
2022/07/04 04:01:16;;;;;;;0.30;0.30;;;18.10;1.00;;;;;;5031060;28;20230;-75
2022/07/04 04:06:26;;;;;;;0.40;0.40;;;18.10;1.00;;;;;;5031699;28;20269;-75
2022/07/04 04:08:51;;;;;;;0.30;0.30;;;18.20;1.00;;;;;;5031131;28;20210;-76
2022/07/04 04:11:17;;;;;;;0.30;0.30;;;18.20;1.00;;;;;;5031664;28;20259;-76
2022/07/04 04:13:42;;;;;;;0.20;0.20;;;18.20;1.00;;;;;;5031811;28;20187;-75
2022/07/04 04:16:08;;;;;;;0.30;0.30;;;18.20;1.00;;;;;;5031165;28;20175;-75
2022/07/04 04:18:33;;;;;;;0.30;0.30;;;18.20;1.00;;;;;;5031719;28;20715;-75
2022/07/04 04:20:59;;;;;;;0.30;0.30;;;18.20;1.00;;;;;;5031017;28;20175;-75
2022/07/04 04:23:24;;;;;;;0.30;0.30;;;18.20;1.00;;;;;;5029462;28;20246;-75
2022/07/04 04:25:50;;;;;;;0.20;0.20;;;18.30;1.00;;;;;;5029049;28;20278;-75
2022/07/04 04:28:15;;;;;;;0.30;0.30;;;18.30;1.00;;;;;;5030680;28;20182;-75
2022/07/04 04:30:41;;;;;;;0.30;0.30;;;18.30;1.00;;;;;;5030707;28;20245;-76
2022/07/04 04:33:06;;;;;;;0.30;0.30;;;18.40;1.00;;;;;;5031378;28;20192;-76
2022/07/04 04:35:32;;;;;;;0.30;0.30;;;18.40;1.00;;;;;;5031592;28;20167;-75
2022/07/04 04:37:58;;;;;;;0.33;0.33;;;18.40;1.00;;;;;;5031615;28;20190;-75
2022/07/04 04:40:23;;;;;;;0.20;0.20;;;18.40;1.00;;;;;;5031108;28;20605;-75
2022/07/04 04:42:49;;;;;;;0.30;0.30;;;18.50;1.00;;;;;;5026697;28;20572;-76
2022/07/04 04:45:14;;;;;;;0.30;0.30;;;18.50;1.00;;;;;;5030620;28;20582;-76
2022/07/04 04:47:40;;;;;;;0.30;0.30;;;18.50;1.00;;;;;;5031331;28;20194;-76
2022/07/04 04:50:10;;;;;;;0.30;0.30;;;18.60;1.00;;;;;;5031093;28;20176;-76
2022/07/04 04:52:35;;;;;;;0.30;0.30;;;18.70;1.00;;;;;;5031528;28;20195;-77
2022/07/04 04:55:01;;;;;;;0.30;0.30;;;18.70;1.00;;;;;;5031409;28;20182;-75
2022/07/04 04:57:26;;;;;;;0.30;0.30;;;18.70;99.90;;;;;;5031324;28;20236;-75
2022/07/04 04:59:52;;;;;;;0.30;0.30;;;18.80;1.00;;;;;;5031411;28;20436;-76
2022/07/04 05:02:17;;;;;;;0.40;0.40;;;18.90;99.90;;;;;;5035056;28;20326;-75
2022/07/04 05:04:43;;;;;;;0.30;0.30;;;19.00;99.90;;;;;;5035254;28;20672;-75
2022/07/04 05:07:08;;;;;;;0.30;0.30;;;19.00;99.90;;;;;;5035064;28;20176;-76
2022/07/04 05:09:34;;;;;;;0.30;0.30;;;19.10;99.90;;;;;;5034551;28;20186;-74
2022/07/04 05:11:59;;;;;;;0.30;0.30;;;19.10;99.90;;;;;;5035580;28;20203;-75
2022/07/04 05:14:25;;;;;;;0.30;0.30;;;19.10;1.00;;;;;;5034765;28;20176;-75
2022/07/04 05:16:51;;;;;;;0.30;0.30;;;19.10;1.00;;;;;;5034567;28;20208;-76
2022/07/04 05:19:16;;;;;;;0.30;0.30;;;19.20;99.90;;;;;;5034319;28;20734;-75
2022/07/04 05:21:42;;;;;;;0.20;0.20;;;19.20;99.90;;;;;;5035001;28;20237;-74
2022/07/04 05:24:07;;;;;;;0.33;0.33;;;19.30;1.00;;;;;;5034576;28;20172;-75
2022/07/04 05:26:33;;;;;;;0.30;0.30;;;19.30;1.00;;;;;;5034680;28;20202;-74
2022/07/04 05:28:58;;;;;;;0.30;0.30;;;19.30;1.00;;;;;;5033777;28;20226;-77
2022/07/04 05:31:24;;;;;;;0.30;0.30;;;19.30;39.10;;;;;;5034671;28;20672;-77
2022/07/04 05:33:52;;;;;;;0.30;0.30;;;19.30;99.90;;;;;;5034244;28;20176;-75
2022/07/04 05:36:17;;;;;;;0.30;0.30;;;19.30;99.90;;;;;;5034129;28;20580;-75
2022/07/04 05:38:43;;;;;;;0.30;0.30;;;19.40;1.00;;;;;;5034532;28;20207;-75
2022/07/04 05:41:08;;;;;;;0.30;0.30;;;19.40;1.00;;;;;;5033108;28;20213;-75
2022/07/04 05:43:34;;;;;;;0.30;0.30;;;19.50;1.00;;;;;;5034020;28;20591;-75
2022/07/04 05:45:59;;;;;;;0.20;0.20;;;19.50;1.00;;;;;;5034376;28;20183;-76
2022/07/04 05:48:25;;;;;;;0.30;0.30;;;19.60;1.00;;;;;;5026508;28;20210;-75
2022/07/04 05:50:50;;;;;;;0.30;0.30;;;19.80;99.90;;;;;;5033037;28;20677;-75
2022/07/04 05:53:16;;;;;;;0.40;0.40;;;19.80;99.90;;;;;;5033289;28;20187;-75
2022/07/04 05:55:42;;;;;;;0.30;0.30;;;20.00;99.90;;;;;;5034165;28;20657;-75
2022/07/04 05:58:07;;;;;;;0.20;0.20;;;20.10;1.00;;;;;;5033930;28;20605;-75
2022/07/04 06:00:33;;;;;;;0.30;0.30;;;20.20;1.00;;;;;;5033693;28;20219;-75
2022/07/04 06:02:58;;;;;;;0.30;0.30;;;20.40;1.00;;;;;;5033961;28;20665;-76
2022/07/04 06:05:24;;;;;;;0.30;0.30;;;20.50;1.00;;;;;;5033905;28;20233;-75
2022/07/04 06:07:49;;;;;;;0.27;0.27;;;20.70;1.00;;;;;;5034027;28;20183;-75
2022/07/04 06:10:15;;;;;;;0.30;0.30;;;20.80;99.90;;;;;;5033018;28;20184;-75
2022/07/04 06:12:41;;;;;;;0.30;0.30;;;20.80;35.60;;;;;;5032545;28;20200;-76
2022/07/04 06:15:09;;;;;;;0.20;0.20;;;21.00;25.20;;;;;;5033473;28;20365;-75
2022/07/04 06:17:35;;;;;;;0.20;0.20;;;21.10;1.00;;;;;;5034121;28;20233;-75
2022/07/04 06:20:01;;;;;;;0.30;0.30;;;21.10;89.70;;;;;;5033003;28;20223;-75
2022/07/04 06:22:26;;;;;;;0.20;0.20;;;21.20;1.00;;;;;;5034072;28;20669;-75
2022/07/04 06:24:52;;;;;;;0.20;0.20;;;21.10;1.00;;;;;;5033372;28;20242;-74
2022/07/04 06:27:17;;;;;;;0.30;0.30;;;21.20;1.00;;;;;;5033260;28;20612;-74
2022/07/04 06:29:43;;;;;;;0.30;0.30;;;21.30;1.00;;;;;;5033116;28;20176;-74
2022/07/04 06:32:08;;;;;;;0.30;0.30;;;21.30;99.90;;;;;;5033583;28;20200;-74
2022/07/04 06:37:18;;;;;;;0.40;0.40;;;21.50;99.90;;;;;;5033646;28;20183;-74
2022/07/04 06:39:43;;;;;;;0.33;0.33;;;21.60;99.90;;;;;;5032590;28;20583;-75
2022/07/04 06:42:09;;;;;;;0.30;0.30;;;21.70;99.90;;;;;;5033215;28;20192;-75
2022/07/04 06:44:34;;;;;;;0.20;0.20;;;21.70;99.90;;;;;;5033365;28;20180;-74
2022/07/04 06:47:00;;;;;;;0.20;0.20;;;21.80;95.70;;;;;;5033365;28;20175;-74
2022/07/04 06:49:25;;;;;;;0.30;0.30;;;21.90;99.90;;;;;;5032644;28;20178;-74
2022/07/04 06:51:51;;;;;;;0.30;0.30;;;22.00;99.90;;;;;;5032926;28;20191;-74
2022/07/04 06:54:16;;;;;;;0.30;0.30;;;22.20;1.00;;;;;;5032800;28;20204;-74
2022/07/04 06:56:42;;;;;;;0.30;0.30;;;22.20;1.00;;;;;;5033300;28;20254;-74
2022/07/04 06:59:07;;;;;;;0.30;0.30;;;22.30;1.00;;;;;;5032482;28;20234;-74
2022/07/04 07:01:33;;;;;;;0.40;0.40;;;22.40;1.00;;;;;;5033054;28;20586;-74
2022/07/04 07:03:58;;;;;;;0.40;0.40;;;22.40;1.00;;;;;;5033007;28;20648;-74
2022/07/04 07:06:24;;;;;;;0.23;0.23;;;22.50;1.00;;;;;;5032846;28;20168;-74
2022/07/04 07:08:49;;;;;;;0.30;0.30;;;22.60;1.00;;;;;;5033045;28;20179;-75
2022/07/04 07:11:18;;;;;;;0.20;0.20;;;22.50;1.00;;;;;;5032644;28;20176;-74
2022/07/04 07:13:50;;;;;;;0.43;0.43;;;22.60;1.00;;;;;;5032694;28;20218;-74
2022/07/04 07:16:16;;;;;;;0.30;0.30;;;22.50;1.00;;;;;;5032785;28;20211;-74
2022/07/04 07:18:42;;;;;;;0.30;0.30;;;22.60;1.00;;;;;;5032584;28;20294;-74
2022/07/04 07:21:08;;;;;;;0.30;0.30;;;22.70;1.00;;;;;;5032157;28;20184;-76
2022/07/04 07:23:34;;;;;;;0.40;0.40;;;22.90;1.00;;;;;;5031928;28;20195;-75
2022/07/04 07:25:59;;;;;;;0.30;0.30;;;23.10;1.00;;;;;;5032748;28;20266;-74
2022/07/04 07:28:25;;;;;;;0.30;0.30;;;23.30;1.00;;;;;;5032507;28;20172;-75
2022/07/04 07:30:50;;;;;;;0.30;0.30;;;23.50;1.00;;;;;;5031948;28;20196;-75
2022/07/04 07:33:16;;;;;;;0.30;0.30;;;23.60;1.00;;;;;;5032445;28;20235;-75
2022/07/04 07:35:41;;;;;;;0.30;0.30;;;23.60;1.00;;;;;;5032354;28;20205;-74
2022/07/04 07:38:07;;;;;;;0.40;0.40;;;23.50;1.00;;;;;;5032418;28;20295;-75
2022/07/04 07:40:33;;;;;;;0.20;0.20;;;23.30;1.00;;;;;;5031841;28;20219;-75
2022/07/04 07:42:58;;;;;;;0.37;0.37;;;23.20;1.00;;;;;;5032400;28;20237;-75
2022/07/04 07:45:24;;;;;;;0.47;0.47;;;23.20;1.00;;;;;;5032175;28;20175;-75
2022/07/04 07:47:49;;;;;;;0.50;0.50;;;23.30;1.00;;;;;;5032261;28;20276;-75
2022/07/04 07:50:15;;;;;;;0.27;0.27;;;23.50;1.00;;;;;;5031775;28;20183;-74
2022/07/04 07:52:40;;;;;;;0.30;0.30;;;23.50;1.00;;;;;;5030209;28;20211;-74
2022/07/04 07:55:06;;;;;;;0.40;0.40;;;23.70;1.00;;;;;;5032233;28;20180;-74
2022/07/04 07:57:32;;;;;;;0.37;0.37;;;23.70;1.00;;;;;;5031763;28;20172;-75
2022/07/04 07:59:58;;;;;;;0.37;0.37;;;23.70;1.00;;;;;;5031386;28;20222;-75
2022/07/04 08:04:34;;;;;;;0.30;0.30;;;23.70;1.00;;;;;;5031883;28;20199;-75
2022/07/04 08:05:11;;;;;;;0.20;0.20;;;24.00;1.00;;;;;;5031769;28;20206;-75
2022/07/04 08:07:37;;;;;;;0.30;0.30;;;24.20;1.00;;;;;;5031889;28;20187;-74
2022/07/04 08:10:03;;;;;;;0.27;0.27;;;24.30;1.00;;;;;;5031528;28;20187;-75
2022/07/04 08:12:29;;;;;;;0.30;0.30;;;24.30;1.00;;;;;;5031852;28;20199;-75
2022/07/04 08:14:54;;;;;;;0.30;0.30;;;24.30;1.00;;;;;;5031834;28;20233;-74
2022/07/04 08:17:20;;;;;;;0.40;0.40;;;24.30;1.00;;;;;;5031762;28;20179;-75
2022/07/04 08:19:45;;;;;;;0.30;0.30;;;24.40;1.00;;;;;;5031705;28;20245;-74
2022/07/04 08:22:11;;;;;;;0.30;0.30;;;24.50;1.00;;;;;;5031721;28;20191;-75
2022/07/04 08:24:36;;;;;;;0.30;0.30;;;24.60;1.00;;;;;;5031866;28;20194;-74
2022/07/04 08:27:02;;;;;;;0.30;0.30;;;24.50;1.00;;;;;;5031790;28;20210;-75
2022/07/04 08:29:30;;;;;;;0.30;0.30;;;24.40;1.00;;;;;;5031313;28;20225;-74
2022/07/04 08:31:56;;;;;;;0.40;0.40;;;24.30;1.00;;;;;;5031608;28;20214;-75
2022/07/04 08:34:21;;;;;;;0.50;0.50;;;24.20;1.00;;;;;;5031765;28;20556;-74
2022/07/04 08:36:47;;;;;;;0.20;0.20;;;24.00;1.00;;;;;;5035893;28;20265;-74
2022/07/04 08:39:13;;;;;;;0.40;0.40;;;23.70;1.00;;;;;;5035336;28;20802;-74
2022/07/04 08:41:40;;;;;;;0.30;0.30;;;23.50;1.00;;;;;;5035500;28;20196;-75
2022/07/04 08:44:10;;;;;;;0.40;0.40;;;23.40;1.00;;;;;;5035580;28;20172;-74
2022/07/04 08:46:39;;;;;;;0.20;0.20;;;23.40;1.00;;;;;;5035488;28;20652;-75
2022/07/04 08:49:11;;;;;;;0.37;0.37;;;23.30;1.00;;;;;;5034935;28;20517;-75
2022/07/04 08:51:59;;;;;;;0.50;0.50;;;23.40;1.00;;;;;;5035142;28;20677;-75
2022/07/04 09:00:15;;;;;;;0.37;0.37;;;24.00;1.00;;;;;;4992983;28;20223;-75
2022/07/04 09:02:40;;;;;;;0.33;0.33;;;24.30;1.00;;;;;;4993378;28;20597;-75
2022/07/04 09:05:08;;;;;;;0.37;0.37;;;24.40;1.00;;;;;;5012660;28;20192;-76
2022/07/04 09:07:34;;;;;;;0.30;0.30;;;24.40;1.00;;;;;;5035074;28;20184;-75
2022/07/04 09:10:02;;;;;;;0.40;0.40;;;24.50;1.00;;;;;;5034774;28;20263;-75
2022/07/04 09:12:27;;;;;;;0.30;0.30;;;24.60;1.00;;;;;;5035083;28;20257;-75
2022/07/04 09:14:53;;;;;;;0.40;0.40;;;24.90;1.00;;;;;;5035093;28;20590;-76
2022/07/04 09:17:19;;;;;;;0.40;0.40;;;25.00;1.00;;;;;;5034998;28;20259;-75
2022/07/04 09:19:45;;;;;;;0.50;0.50;;;25.10;1.00;;;;;;5034296;28;20204;-75
2022/07/04 09:22:11;;;;;;;0.30;0.30;;;25.40;1.00;;;;;;5034819;28;20188;-76
2022/07/04 09:24:52;;;;;;;0.30;0.30;;;25.80;1.00;;;;;;5035330;28;20762;-76
2022/07/04 09:27:42;;;;;;;0.30;0.30;;;26.20;1.00;;;;;;5034888;28;20394;-75
2022/07/04 09:30:08;;;;;;;0.43;0.43;;;26.40;1.00;;;;;;5034189;28;20183;-76
2022/07/04 09:32:36;;;;;;;0.40;0.40;;;26.70;1.00;;;;;;5035020;28;20219;-75
2022/07/04 09:35:03;;;;;;;0.40;0.40;;;27.30;1.00;;;;;;5034755;28;20178;-76
2022/07/04 09:37:38;;;;;;;0.40;0.40;;;27.90;1.00;;;;;;5034562;28;20176;-76
2022/07/04 09:40:07;;;;;;;0.50;0.50;;;28.30;1.00;;;;;;5033753;28;20723;-75
2022/07/04 09:42:40;;;;;;;0.40;0.40;;;28.60;1.00;;;;;;5034510;28;20204;-76
2022/07/04 09:45:08;;;;;;;0.40;0.40;;;28.90;1.00;;;;;;5034259;28;20238;-76
2022/07/04 09:47:33;;;;;;;0.50;0.50;;;29.00;1.00;;;;;;5034556;28;20358;-76
2022/07/04 09:50:13;;;;;;;0.40;0.40;;;29.50;1.00;;;;;;5033836;28;20183;-76
2022/07/04 09:52:47;;;;;;;0.40;0.40;;;30.10;1.00;;;;;;5034325;28;20286;-76
2022/07/04 09:55:12;;;;;;;0.40;0.40;;;30.50;1.00;;;;;;5034083;28;20219;-76
2022/07/04 09:57:43;;;;;;;0.60;0.60;;;30.90;1.00;;;;;;5034244;28;20187;-76
2022/07/04 10:00:26;;;;;;;0.50;0.50;;;31.20;1.00;;;;;;5033807;28;20207;-76
2022/07/04 10:02:53;;;;;;;0.43;0.43;;;31.20;1.00;;;;;;5034110;28;20199;-76
2022/07/04 10:05:24;;;;;;;0.60;0.60;;;30.90;1.00;;;;;;5034118;28;20230;-76
2022/07/04 10:07:50;;;;;;;0.50;0.50;;;30.60;1.00;;;;;;5033974;28;20218;-76
2022/07/04 10:10:28;;;;;;;0.57;0.57;;;30.40;1.00;;;;;;5033277;28;20192;-76
2022/07/04 10:13:00;;;;;;;0.47;0.47;;;30.50;1.00;;;;;;5033964;28;20214;-76
2022/07/04 10:15:25;;;;;;;0.53;0.53;;;30.70;1.00;;;;;;5034000;28;20231;-76
2022/07/04 10:17:51;;;;;;;0.50;0.50;;;30.90;1.00;;;;;;5033798;28;20629;-75
2022/07/04 10:20:17;;;;;;;0.50;0.50;;;31.00;1.00;;;;;;5033073;28;20215;-75
2022/07/04 10:22:43;;;;;;;0.50;0.50;;;31.00;1.00;;;;;;5033474;28;20283;-75
2022/07/04 10:25:10;;;;;;;0.63;0.63;;;30.70;1.00;;;;;;5033592;28;20172;-75
2022/07/04 10:27:37;;;;;;;0.60;0.60;;;30.50;1.00;;;;;;5033737;28;20176;-75
2022/07/04 10:30:05;;;;;;;0.50;0.50;;;30.70;1.00;;;;;;5033036;28;20195;-76
2022/07/04 10:32:32;;;;;;;0.50;0.50;;;30.80;1.00;;;;;;5033430;28;20224;-76
2022/07/04 10:34:58;;;;;;;0.60;0.60;;;31.10;1.00;;;;;;5033338;28;20176;-76
2022/07/04 10:37:24;;;;;;;0.53;0.53;;;31.10;1.00;;;;;;5033830;28;20637;-75
2022/07/04 10:39:50;;;;;;;0.40;0.40;;;31.20;1.00;;;;;;5032653;28;20268;-75
2022/07/04 10:42:25;;;;;;;0.50;0.50;;;31.30;1.00;;;;;;5033375;28;20203;-75
2022/07/04 10:44:52;;;;;;;0.57;0.57;;;31.50;1.00;;;;;;5033292;28;20313;-76
2022/07/04 10:47:23;;;;;;;0.60;0.60;;;31.50;1.00;;;;;;5033565;28;20259;-75
2022/07/04 10:49:51;;;;;;;0.60;0.60;;;31.30;1.00;;;;;;5032712;28;20191;-76
2022/07/04 10:52:17;;;;;;;0.47;0.47;;;31.50;1.00;;;;;;5033546;28;20218;-76
2022/07/04 10:54:44;;;;;;;0.60;0.60;;;31.60;1.00;;;;;;5033080;28;20637;-75
2022/07/04 10:57:20;;;;;;;0.60;0.60;;;31.70;1.00;;;;;;5032723;28;20238;-76
2022/07/04 10:59:52;;;;;;;0.60;0.60;;;31.60;1.00;;;;;;5032359;28;20356;-76
2022/07/04 11:02:17;;;;;;;0.40;0.40;;;31.70;1.00;;;;;;5032910;28;20195;-75
2022/07/04 11:05:03;;;;;;;0.50;0.50;;;31.40;1.00;;;;;;5033097;28;20236;-76
2022/07/04 11:07:39;;;;;;;0.50;0.50;;;31.20;1.00;;;;;;5032899;28;20263;-76
2022/07/04 11:10:21;;;;;;;0.70;0.70;;;31.20;1.00;;;;;;5032496;28;20267;-76
2022/07/04 11:12:59;;;;;;;0.60;0.60;;;31.40;1.00;;;;;;5032631;28;20211;-75
2022/07/04 11:15:24;;;;;;;0.60;0.60;;;31.70;1.00;;;;;;5032917;28;20206;-76
2022/07/04 11:17:54;;;;;;;0.57;0.57;;;31.80;1.00;;;;;;5032621;28;20650;-75
2022/07/04 11:20:20;;;;;;;0.60;0.60;;;31.80;1.00;;;;;;5032146;28;20234;-75
2022/07/04 11:22:46;;;;;;;0.50;0.50;;;31.80;1.00;;;;;;5032609;28;20219;-76
2022/07/04 11:25:12;;;;;;;0.40;0.40;;;32.00;1.00;;;;;;5032598;28;20183;-76
2022/07/04 11:27:39;;;;;;;0.30;0.30;;;32.20;1.00;;;;;;5032638;28;20168;-76
2022/07/04 11:30:05;;;;;;;0.53;0.53;;;32.20;1.00;;;;;;5032003;28;20274;-75
2022/07/04 11:32:33;;;;;;;0.60;0.60;;;32.10;1.00;;;;;;5032284;28;20774;-76
2022/07/04 11:34:59;;;;;;;0.40;0.40;;;32.10;1.00;;;;;;5032446;28;20187;-76
2022/07/04 11:37:25;;;;;;;0.50;0.50;;;32.20;1.00;;;;;;5031022;28;20176;-76
2022/07/04 11:39:51;;;;;;;0.50;0.50;;;32.00;1.00;;;;;;5031433;28;20238;-76
2022/07/04 11:45:07;;;;;;;0.50;0.50;;;31.70;1.00;;;;;;5032318;28;20182;-76
2022/07/04 11:47:33;;;;;;;0.40;0.40;;;31.70;1.00;;;;;;5032282;28;20482;-76
2022/07/04 11:50:01;;;;;;;0.50;0.50;;;31.60;1.00;;;;;;5031709;28;20302;-76
2022/07/04 11:52:51;;;;;;;0.50;0.50;;;31.40;1.00;;;;;;5032248;28;20302;-76
2022/07/04 11:55:17;;;;;;;0.60;0.60;;;31.20;1.00;;;;;;5032197;28;20171;-76
2022/07/04 11:57:52;;;;;;;0.60;0.60;;;31.10;1.00;;;;;;5032362;28;20168;-75
2022/07/04 12:00:20;;;;;;;0.57;0.57;;;30.60;1.00;;;;;;5031311;28;20210;-76
2022/07/04 12:02:49;;;;;;;0.50;0.50;;;30.30;1.00;;;;;;5031643;28;20219;-75
2022/07/04 12:05:15;;;;;;;0.57;0.57;;;30.00;1.00;;;;;;5032255;28;20188;-75
2022/07/04 12:07:46;;;;;;;0.30;0.30;;;30.00;1.00;;;;;;5031983;28;20171;-76
2022/07/04 12:10:17;;;;;;;0.40;0.40;;;30.40;1.00;;;;;;5030433;28;20676;-76
2022/07/04 12:12:57;;;;;;;0.40;0.40;;;30.80;1.00;;;;;;5031758;28;20184;-76
2022/07/04 12:15:24;;;;;;;0.50;0.50;;;31.20;1.00;;;;;;5031979;28;20181;-76
2022/07/04 12:17:53;;;;;;;0.53;0.53;;;31.50;1.00;;;;;;5031785;28;20195;-76
2022/07/04 12:20:18;;;;;;;0.50;0.50;;;31.70;1.00;;;;;;5031226;28;20325;-76
2022/07/04 12:22:56;;;;;;;0.40;0.40;;;31.80;1.00;;;;;;5031510;28;20719;-76
2022/07/04 12:25:27;;;;;;;0.50;0.50;;;31.80;1.00;;;;;;5031564;28;20179;-75
2022/07/04 12:27:55;;;;;;;0.60;0.60;;;31.60;1.00;;;;;;5031822;28;20172;-76
2022/07/04 12:30:21;;;;;;;0.50;0.50;;;31.40;1.00;;;;;;5031120;28;20191;-76
2022/07/04 12:32:50;;;;;;;0.50;0.50;;;30.80;1.00;;;;;;5031209;28;20196;-76
2022/07/04 12:35:48;;;;;;;0.50;0.50;;;30.70;1.00;;;;;;5031586;28;20577;-76
2022/07/04 12:38:13;;;;;;;0.57;0.57;;;30.80;1.00;;;;;;5031438;28;20745;-76
2022/07/04 12:40:55;;;;;;;0.60;0.60;;;30.60;1.00;;;;;;5031065;28;20238;-76
2022/07/04 12:43:23;;;;;;;0.40;0.40;;;30.90;1.00;;;;;;5031465;28;20222;-76
2022/07/04 12:45:53;;;;;;;0.60;0.60;;;31.00;1.00;;;;;;5031551;28;20172;-76
2022/07/04 12:48:29;;;;;;;0.50;0.50;;;30.90;1.00;;;;;;5031480;28;20656;-75
2022/07/04 12:51:11;;;;;;;0.50;0.50;;;31.10;1.00;;;;;;5030393;28;20190;-75
2022/07/04 12:53:41;;;;;;;0.57;0.57;;;31.20;1.00;;;;;;5031077;28;20585;-75
2022/07/04 12:56:07;;;;;;;0.50;0.50;;;31.00;1.00;;;;;;5031513;28;20669;-76
2022/07/04 12:58:33;;;;;;;0.57;0.57;;;31.00;1.00;;;;;;5031331;28;20553;-76
2022/07/04 13:00:59;;;;;;;0.50;0.50;;;31.10;1.00;;;;;;5030481;28;20692;-77
2022/07/04 13:03:25;;;;;;;0.60;0.60;;;31.10;1.00;;;;;;5031515;28;20283;-76
2022/07/04 13:05:50;;;;;;;0.40;0.40;;;31.10;1.00;;;;;;5031330;28;20184;-76
2022/07/04 13:08:16;;;;;;;0.40;0.40;;;31.10;1.00;;;;;;5031398;28;20179;-76
2022/07/04 13:10:41;;;;;;;0.50;0.50;;;31.00;1.00;;;;;;5030786;28;20546;-76
2022/07/04 13:13:07;;;;;;;0.50;0.50;;;30.90;1.00;;;;;;5031080;28;20200;-75
2022/07/04 13:15:32;;;;;;;0.50;0.50;;;30.90;1.00;;;;;;5031143;28;20234;-76